Time;durP1;ratioP1;P1;durP2;ratioP2;P2;SDS_P1;SDS_P2;PMS_P1;PMS_P2;Temp;Humidity;BMP_temperature;BMP_pressure;BME280_temperature;BME280_humidity;BME280_pressure;Samples;Min_cycle;Max_cycle;Signal;HPM_P1;HPM_P2
2023/02/12 00:02:14;;;;;;;16.80;8.18;;;9.10;99.90;;;;;;5001905;28;25094;-73
2023/02/12 00:04:39;;;;;;;13.07;8.65;;;9.20;99.90;;;;;;5002943;28;25155;-71
2023/02/12 00:07:05;;;;;;;16.63;9.07;;;9.30;99.90;;;;;;5000303;28;25148;-70
2023/02/12 00:09:30;;;;;;;15.82;8.80;;;9.30;99.90;;;;;;5007036;28;25058;-71
2023/02/12 00:11:56;;;;;;;19.40;8.90;;;9.30;99.90;;;;;;5003251;28;25064;-71
2023/02/12 00:14:21;;;;;;;17.70;9.68;;;9.40;99.90;;;;;;4997932;28;25153;-71
2023/02/12 00:16:47;;;;;;;15.60;8.73;;;9.40;99.90;;;;;;5000663;28;25150;-70
2023/02/12 00:19:12;;;;;;;17.15;9.18;;;9.40;99.90;;;;;;4974415;28;25079;-72
2023/02/12 00:21:38;;;;;;;19.10;9.98;;;9.40;99.90;;;;;;4996425;28;25092;-69
2023/02/12 00:24:04;;;;;;;14.32;9.20;;;9.30;99.90;;;;;;4983709;28;25127;-72
2023/02/12 00:26:29;;;;;;;14.07;9.68;;;9.40;99.90;;;;;;4993323;28;25061;-71
2023/02/12 00:28:55;;;;;;;15.40;9.70;;;9.30;99.90;;;;;;5003512;28;25069;-71
2023/02/12 00:31:25;;;;;;;16.98;9.18;;;9.40;99.90;;;;;;4997734;28;25145;-73
2023/02/12 00:33:50;;;;;;;17.80;10.40;;;9.30;99.90;;;;;;4999836;28;25079;-72
2023/02/12 00:36:19;;;;;;;17.45;10.88;;;9.30;99.90;;;;;;4995089;28;25113;-71
2023/02/12 00:38:46;;;;;;;15.60;9.90;;;9.30;99.90;;;;;;5006426;28;25132;-70
2023/02/12 00:41:12;;;;;;;15.13;9.27;;;9.30;99.90;;;;;;5001250;28;25079;-71
2023/02/12 00:43:38;;;;;;;17.02;10.07;;;9.30;99.90;;;;;;5001353;28;25057;-70
2023/02/12 00:46:04;;;;;;;19.17;10.27;;;9.40;99.90;;;;;;4997140;28;25075;-71
2023/02/12 00:48:30;;;;;;;17.73;10.10;;;9.40;99.90;;;;;;4995755;28;25157;-72
2023/02/12 00:50:56;;;;;;;14.48;8.98;;;9.40;99.90;;;;;;4993622;28;25109;-70
2023/02/12 00:53:21;;;;;;;16.20;9.30;;;9.30;99.90;;;;;;5005743;28;25064;-71
2023/02/12 00:55:47;;;;;;;18.80;10.00;;;9.30;99.90;;;;;;4986046;28;25059;-70
2023/02/12 00:58:13;;;;;;;17.60;8.88;;;9.20;99.90;;;;;;4995667;28;25083;-71
2023/02/12 01:00:38;;;;;;;15.70;9.13;;;9.10;99.90;;;;;;4998378;28;25107;-71
2023/02/12 01:03:04;;;;;;;18.80;10.27;;;9.00;99.90;;;;;;4997883;28;25054;-71
2023/02/12 01:05:30;;;;;;;16.50;9.43;;;9.00;99.90;;;;;;5004953;28;25083;-71
2023/02/12 01:07:56;;;;;;;16.33;9.52;;;9.10;99.90;;;;;;5001731;28;25275;-71
2023/02/12 01:10:22;;;;;;;16.80;9.48;;;9.10;99.90;;;;;;4999565;28;25070;-72
2023/02/12 01:12:48;;;;;;;14.70;9.77;;;9.10;99.90;;;;;;5007039;28;25070;-71
2023/02/12 01:15:15;;;;;;;18.13;10.55;;;9.20;99.90;;;;;;4997643;28;25058;-70
2023/02/12 01:17:40;;;;;;;15.10;10.23;;;9.10;99.90;;;;;;5002385;28;25086;-71
2023/02/12 01:20:08;;;;;;;21.38;11.10;;;9.00;99.90;;;;;;5007479;28;25091;-70
2023/02/12 01:22:35;;;;;;;17.92;11.40;;;9.00;99.90;;;;;;4981913;28;25069;-71
2023/02/12 01:25:01;;;;;;;19.50;10.80;;;9.00;99.90;;;;;;4999620;28;25075;-71
2023/02/12 01:27:27;;;;;;;18.08;9.73;;;8.90;99.90;;;;;;5002504;28;25069;-70
2023/02/12 01:29:52;;;;;;;15.75;9.70;;;9.00;99.90;;;;;;4996758;28;25129;-71
2023/02/12 01:32:18;;;;;;;17.25;9.68;;;9.00;99.90;;;;;;4991827;28;25080;-73
2023/02/12 01:34:43;;;;;;;18.70;9.23;;;8.90;99.90;;;;;;5000245;28;25077;-70
2023/02/12 01:37:09;;;;;;;14.55;8.93;;;8.80;99.90;;;;;;5004864;28;25086;-71
2023/02/12 01:39:34;;;;;;;15.50;9.60;;;8.90;99.90;;;;;;5009153;28;25088;-71
2023/02/12 01:42:00;;;;;;;15.13;9.13;;;8.90;99.90;;;;;;5015925;28;25124;-71
2023/02/12 01:44:30;;;;;;;15.70;8.43;;;8.90;99.90;;;;;;5003253;28;25123;-72
2023/02/12 01:47:02;;;;;;;12.30;8.20;;;9.00;99.90;;;;;;5005330;28;25131;-71
2023/02/12 01:49:34;;;;;;;15.77;8.68;;;9.00;99.90;;;;;;4995959;28;25186;-70
2023/02/12 01:52:19;;;;;;;14.80;8.63;;;9.00;99.90;;;;;;5006490;28;25133;-71
2023/02/12 01:54:46;;;;;;;13.73;8.63;;;9.00;99.90;;;;;;5000247;28;25081;-71
2023/02/12 01:57:13;;;;;;;15.35;8.95;;;8.90;99.90;;;;;;4994602;28;25059;-73
2023/02/12 01:59:42;;;;;;;18.67;9.15;;;8.90;99.90;;;;;;5003001;28;25142;-71
2023/02/12 02:02:07;;;;;;;16.90;8.15;;;8.80;99.90;;;;;;4986011;28;25064;-71
2023/02/12 02:04:42;;;;;;;16.83;8.50;;;8.70;99.90;;;;;;4998542;28;25085;-71
2023/02/12 02:07:10;;;;;;;19.17;8.80;;;8.80;99.90;;;;;;5000575;28;25070;-71
2023/02/12 02:09:37;;;;;;;16.30;8.35;;;8.80;99.90;;;;;;4986336;28;25120;-70
2023/02/12 02:14:50;;;;;;;17.38;8.23;;;8.80;99.90;;;;;;4998160;28;25085;-71
2023/02/12 02:17:53;;;;;;;14.25;8.23;;;8.70;99.90;;;;;;4996212;28;25093;-70
2023/02/12 02:20:38;;;;;;;14.43;8.23;;;8.70;99.90;;;;;;4998185;28;25069;-70
2023/02/12 02:23:32;;;;;;;13.98;7.07;;;8.80;99.90;;;;;;5002407;28;25074;-71
2023/02/12 02:26:17;;;;;;;12.55;6.78;;;8.90;99.90;;;;;;4991719;28;25094;-72
2023/02/12 02:28:53;;;;;;;14.85;6.97;;;8.80;99.90;;;;;;4998905;28;25081;-71
2023/02/12 02:31:27;;;;;;;12.20;7.18;;;8.90;99.90;;;;;;4983874;28;25111;-70
2023/02/12 02:33:56;;;;;;;12.15;7.68;;;8.90;99.90;;;;;;4994438;28;25095;-71
2023/02/12 02:36:33;;;;;;;11.07;7.13;;;8.90;99.90;;;;;;4978435;28;25263;-71
2023/02/12 02:39:37;;;;;;;11.65;6.95;;;8.70;99.90;;;;;;4999999;28;25181;-71
2023/02/12 02:42:32;;;;;;;14.38;7.18;;;8.70;99.90;;;;;;4978736;28;25077;-70
2023/02/12 02:45:21;;;;;;;14.15;6.88;;;8.70;99.90;;;;;;4990926;28;25073;-70
2023/02/12 02:47:57;;;;;;;11.73;7.22;;;8.70;99.90;;;;;;4989631;28;25095;-70
2023/02/12 02:50:24;;;;;;;13.45;7.20;;;8.70;99.90;;;;;;5007493;28;25061;-71
2023/02/12 02:53:03;;;;;;;12.75;6.75;;;8.80;99.90;;;;;;4981400;28;25095;-70
2023/02/12 02:55:36;;;;;;;10.73;6.78;;;8.80;99.90;;;;;;4998344;28;25144;-71
2023/02/12 02:58:08;;;;;;;13.20;7.25;;;8.90;99.90;;;;;;5001518;28;25060;-69
2023/02/12 03:00:38;;;;;;;;;;;8.90;99.90;;;;;;5011206;28;25094;-71
2023/02/12 03:03:15;;;;;;;10.85;6.50;;;8.90;99.90;;;;;;4997035;28;24089;-73
2023/02/12 03:05:46;;;;;;;12.40;6.45;;;8.90;99.90;;;;;;5004025;28;25076;-71
2023/02/12 03:08:17;;;;;;;10.82;6.45;;;8.80;99.90;;;;;;5002840;28;25072;-72
2023/02/12 03:10:52;;;;;;;9.25;5.90;;;8.80;99.90;;;;;;4997884;28;25057;-71
2023/02/12 03:13:22;;;;;;;12.05;6.88;;;8.80;99.90;;;;;;4990571;28;25078;-72
2023/02/12 03:16:01;;;;;;;11.98;5.88;;;8.80;99.90;;;;;;4998348;28;25098;-73
2023/02/12 03:18:31;;;;;;;11.38;6.43;;;8.70;99.90;;;;;;4999815;28;25076;-72
2023/02/12 03:21:01;;;;;;;9.90;6.18;;;8.70;99.90;;;;;;5002957;28;25047;-71
2023/02/12 03:23:49;;;;;;;10.68;5.75;;;8.70;99.90;;;;;;4998912;28;25082;-71
2023/02/12 03:26:21;;;;;;;8.48;5.63;;;8.80;99.90;;;;;;4995083;28;25076;-70
2023/02/12 03:28:47;;;;;;;8.65;5.75;;;8.80;99.90;;;;;;5002968;28;25061;-71
2023/02/12 03:31:43;;;;;;;12.15;5.75;;;8.80;99.90;;;;;;5005611;28;25094;-71
2023/02/12 03:34:32;;;;;;;8.45;5.15;;;8.80;99.90;;;;;;4998432;28;25052;-71
2023/02/12 03:37:09;;;;;;;10.52;5.60;;;8.80;99.90;;;;;;5008758;28;25085;-70
2023/02/12 03:39:50;;;;;;;10.18;5.45;;;8.80;99.90;;;;;;4997730;28;25049;-71
2023/02/12 03:42:38;;;;;;;8.77;4.93;;;8.80;99.90;;;;;;4994238;28;25064;-73
2023/02/12 03:45:23;;;;;;;6.65;5.00;;;8.80;99.90;;;;;;5001723;28;25074;-71
2023/02/12 03:48:01;;;;;;;9.90;5.32;;;8.80;99.90;;;;;;5002041;28;25066;-71
2023/02/12 03:50:37;;;;;;;8.93;4.60;;;8.80;99.90;;;;;;4993251;28;25070;-70
2023/02/12 03:53:04;;;;;;;10.65;5.57;;;8.80;99.90;;;;;;4990117;28;25134;-71
2023/02/12 03:55:31;;;;;;;13.35;5.32;;;8.90;99.90;;;;;;4996548;28;25148;-70
2023/02/12 03:58:00;;;;;;;9.95;5.30;;;8.90;99.90;;;;;;4998783;28;25144;-71
2023/02/12 04:00:26;;;;;;;11.77;5.30;;;8.90;99.90;;;;;;4999805;28;25055;-72
2023/02/12 04:02:53;;;;;;;10.50;5.53;;;8.80;99.90;;;;;;4995866;28;25109;-72
2023/02/12 04:05:28;;;;;;;8.77;5.53;;;8.80;99.90;;;;;;4996707;28;25060;-70
2023/02/12 04:07:55;;;;;;;10.57;5.40;;;8.80;99.90;;;;;;4997638;28;25098;-72
2023/02/12 04:10:55;;;;;;;7.07;5.35;;;8.80;99.90;;;;;;4998836;28;25054;-71
2023/02/12 04:13:31;;;;;;;9.90;5.60;;;8.70;99.90;;;;;;4977223;28;25080;-70
2023/02/12 04:16:27;;;;;;;14.57;6.53;;;8.70;99.90;;;;;;4999535;28;25066;-70
2023/02/12 04:18:53;;;;;;;9.10;5.88;;;8.60;99.90;;;;;;4998806;28;25167;-72
2023/02/12 04:21:43;;;;;;;12.15;6.07;;;8.60;99.90;;;;;;4997344;28;25100;-71
2023/02/12 04:24:31;;;;;;;10.65;6.32;;;8.50;99.90;;;;;;4995513;28;25157;-70
2023/02/12 04:27:23;;;;;;;12.45;6.88;;;8.50;99.90;;;;;;5009100;28;25071;-72
2023/02/12 04:29:54;;;;;;;11.55;7.00;;;8.50;99.90;;;;;;5005639;28;25108;-71
2023/02/12 04:32:27;;;;;;;9.30;6.53;;;8.60;99.90;;;;;;5001783;28;25071;-70
2023/02/12 04:35:03;;;;;;;9.02;6.63;;;8.70;99.90;;;;;;4996291;28;25098;-70
2023/02/12 04:37:52;;;;;;;9.27;6.32;;;8.70;99.90;;;;;;4996068;28;25102;-71
2023/02/12 04:40:20;;;;;;;13.57;7.22;;;8.80;99.90;;;;;;4997068;28;25156;-71
2023/02/12 04:42:51;;;;;;;14.35;6.70;;;8.80;99.90;;;;;;4979982;28;25131;-72
2023/02/12 04:45:24;;;;;;;9.10;6.25;;;8.70;99.90;;;;;;4998605;28;25135;-70
2023/02/12 04:47:49;;;;;;;;;;;8.70;99.90;;;;;;5000512;28;25135;-71
2023/02/12 04:50:15;;;;;;;12.27;6.35;;;8.70;99.90;;;;;;4997387;28;24172;-70
2023/02/12 04:52:40;;;;;;;13.50;6.68;;;8.80;99.90;;;;;;5002736;28;25094;-70
2023/02/12 04:55:06;;;;;;;10.30;6.82;;;8.80;99.90;;;;;;5001749;28;25066;-71
2023/02/12 04:57:31;;;;;;;10.82;6.30;;;8.80;99.90;;;;;;4998987;28;25065;-71
2023/02/12 04:59:57;;;;;;;14.50;6.97;;;8.70;99.90;;;;;;5000924;28;25069;-70
2023/02/12 05:02:23;;;;;;;11.25;7.28;;;8.80;99.90;;;;;;5005229;28;24999;-72
2023/02/12 05:04:49;;;;;;;11.65;7.13;;;8.80;99.90;;;;;;4999467;28;25070;-71
2023/02/12 05:07:15;;;;;;;13.70;7.05;;;8.80;99.90;;;;;;5004207;28;25182;-71
2023/02/12 05:09:41;;;;;;;14.82;7.68;;;8.80;99.90;;;;;;5002301;28;25090;-71
2023/02/12 05:12:07;;;;;;;14.02;7.03;;;8.80;99.90;;;;;;4997808;28;25132;-70
2023/02/12 05:14:32;;;;;;;10.02;7.28;;;8.70;99.90;;;;;;4998286;28;25149;-71
2023/02/12 05:16:58;;;;;;;12.23;7.00;;;8.70;99.90;;;;;;4999214;28;25074;-71
2023/02/12 05:19:24;;;;;;;11.60;6.78;;;8.70;99.90;;;;;;4999987;28;25058;-71
2023/02/12 05:21:50;;;;;;;12.02;6.55;;;8.70;99.90;;;;;;5000930;28;25149;-71
2023/02/12 05:24:16;;;;;;;11.30;6.88;;;8.70;99.90;;;;;;4998387;28;25077;-71
2023/02/12 05:26:43;;;;;;;11.10;6.75;;;8.60;99.90;;;;;;4999875;28;25080;-71
2023/02/12 05:29:09;;;;;;;12.85;7.30;;;8.60;99.90;;;;;;5005332;28;25085;-71
2023/02/12 05:31:35;;;;;;;12.23;6.53;;;8.50;99.90;;;;;;5011818;28;25108;-72
2023/02/12 05:34:00;;;;;;;13.25;7.25;;;8.60;99.90;;;;;;5010801;28;25073;-71
2023/02/12 05:36:26;;;;;;;11.07;6.28;;;8.60;99.90;;;;;;5006651;28;25128;-72
2023/02/12 05:38:55;;;;;;;14.57;7.45;;;8.60;99.90;;;;;;5002500;28;25129;-71
2023/02/12 05:41:22;;;;;;;14.98;7.13;;;8.60;99.90;;;;;;4999701;28;25160;-72
2023/02/12 05:43:48;;;;;;;9.35;6.65;;;8.60;99.90;;;;;;4997682;28;26197;-71
2023/02/12 05:46:15;;;;;;;10.18;6.38;;;8.60;99.90;;;;;;5003089;28;25049;-70
2023/02/12 05:48:41;;;;;;;10.05;6.43;;;8.60;99.90;;;;;;5000016;28;25157;-70
2023/02/12 05:51:10;;;;;;;15.27;7.10;;;8.60;99.90;;;;;;5001621;28;25086;-70
2023/02/12 05:53:37;;;;;;;12.60;7.20;;;8.60;99.90;;;;;;5002790;28;25046;-72
2023/02/12 05:56:12;;;;;;;11.90;7.28;;;8.60;99.90;;;;;;4997464;28;25049;-71
2023/02/12 05:58:39;;;;;;;12.35;7.05;;;8.60;99.90;;;;;;5000951;28;25151;-71
2023/02/12 06:01:19;;;;;;;15.50;7.82;;;8.60;99.90;;;;;;5003100;28;25060;-71
2023/02/12 06:03:44;;;;;;;11.48;7.03;;;8.60;99.90;;;;;;4985123;28;25062;-71
2023/02/12 06:06:11;;;;;;;14.18;7.32;;;8.60;99.90;;;;;;5001081;28;25085;-72
2023/02/12 06:08:37;;;;;;;13.93;7.22;;;8.60;99.90;;;;;;4998998;28;25056;-71
2023/02/12 06:11:09;;;;;;;14.65;7.97;;;8.60;99.90;;;;;;5000150;28;25068;-70
2023/02/12 06:13:35;;;;;;;11.55;7.13;;;8.50;99.90;;;;;;5000549;28;25150;-71
2023/02/12 06:16:01;;;;;;;18.25;7.80;;;8.50;99.90;;;;;;5003242;28;25066;-70
2023/02/12 06:18:27;;;;;;;13.50;6.95;;;8.50;99.90;;;;;;5000120;28;25100;-71
2023/02/12 06:20:55;;;;;;;12.85;7.35;;;8.50;99.90;;;;;;5000209;28;25088;-71
2023/02/12 06:23:22;;;;;;;12.75;7.18;;;8.60;99.90;;;;;;5004950;28;25100;-71
2023/02/12 06:25:49;;;;;;;11.73;8.20;;;8.60;99.90;;;;;;4985092;28;25094;-71
2023/02/12 06:28:15;;;;;;;14.05;7.90;;;8.60;99.90;;;;;;4999264;28;25128;-70
2023/02/12 06:30:40;;;;;;;13.02;6.65;;;8.60;99.90;;;;;;4966635;28;25109;-72
2023/02/12 06:33:06;;;;;;;16.50;8.65;;;8.60;99.90;;;;;;4997283;28;25075;-72
2023/02/12 06:35:34;;;;;;;16.58;8.13;;;8.60;99.90;;;;;;5006471;28;25126;-71
2023/02/12 06:38:00;;;;;;;11.98;7.32;;;8.60;99.90;;;;;;4994670;28;25138;-71
2023/02/12 06:40:25;;;;;;;11.35;7.07;;;8.50;99.90;;;;;;5003625;28;25080;-71
2023/02/12 06:42:51;;;;;;;16.70;7.13;;;8.50;99.90;;;;;;5002741;28;25062;-73
2023/02/12 06:45:16;;;;;;;12.07;7.22;;;8.50;99.90;;;;;;5001924;28;25158;-71
2023/02/12 06:47:42;;;;;;;11.90;6.82;;;8.50;99.90;;;;;;5001327;28;25052;-71
2023/02/12 06:50:07;;;;;;;13.93;7.78;;;8.50;99.90;;;;;;5002034;28;25085;-70
2023/02/12 06:52:33;;;;;;;15.32;6.88;;;8.50;99.90;;;;;;5002255;28;25097;-72
2023/02/12 06:54:59;;;;;;;13.50;7.72;;;8.50;99.90;;;;;;4999168;28;25141;-72
2023/02/12 06:57:24;;;;;;;12.25;7.28;;;8.50;99.90;;;;;;5000774;28;25075;-72
2023/02/12 06:59:50;;;;;;;15.52;8.18;;;8.50;99.90;;;;;;4998122;28;25069;-71
2023/02/12 07:02:15;;;;;;;12.75;7.55;;;8.50;99.90;;;;;;4999908;28;25061;-70
2023/02/12 07:04:41;;;;;;;12.07;7.45;;;8.40;99.90;;;;;;4983465;28;25063;-71
2023/02/12 07:07:06;;;;;;;12.00;7.25;;;8.50;99.90;;;;;;4996081;28;25048;-72
2023/02/12 07:09:32;;;;;;;14.73;8.13;;;8.50;99.90;;;;;;5001739;28;25071;-72
2023/02/12 07:11:58;;;;;;;13.23;7.07;;;8.50;99.90;;;;;;5000094;28;25067;-70
2023/02/12 07:14:25;;;;;;;15.20;7.68;;;8.60;99.90;;;;;;5007392;28;25154;-71
2023/02/12 07:16:51;;;;;;;14.52;8.25;;;8.50;99.90;;;;;;5009988;28;25111;-73
2023/02/12 07:19:16;;;;;;;16.08;7.93;;;8.50;99.90;;;;;;4999186;28;25112;-71
2023/02/12 07:21:42;;;;;;;14.32;7.35;;;8.40;99.90;;;;;;5000143;28;25128;-72
2023/02/12 07:24:10;;;;;;;14.02;7.22;;;8.40;99.90;;;;;;4995280;28;25088;-70
2023/02/12 07:26:36;;;;;;;11.60;6.93;;;8.30;99.90;;;;;;5000716;28;25057;-72
2023/02/12 07:29:02;;;;;;;14.80;7.50;;;8.40;99.90;;;;;;5001354;28;25060;-70
2023/02/12 07:31:28;;;;;;;14.73;7.72;;;8.40;99.90;;;;;;4997359;28;25076;-71
2023/02/12 07:33:55;;;;;;;12.27;7.53;;;8.40;99.90;;;;;;5005203;28;25063;-72
2023/02/12 07:36:21;;;;;;;15.50;7.03;;;8.40;99.90;;;;;;4983170;28;25070;-72
2023/02/12 07:38:47;;;;;;;9.75;6.30;;;8.40;99.90;;;;;;5000787;28;25142;-71
2023/02/12 07:41:18;;;;;;;10.88;6.90;;;8.40;99.90;;;;;;4998964;28;25072;-71
2023/02/12 07:43:46;;;;;;;10.77;7.15;;;8.50;99.90;;;;;;4999611;28;25137;-70
2023/02/12 07:46:28;;;;;;;12.48;6.85;;;8.50;99.90;;;;;;5001986;28;25078;-72
2023/02/12 07:48:54;;;;;;;8.85;6.32;;;8.50;99.90;;;;;;4994628;28;25083;-71
2023/02/12 07:51:20;;;;;;;11.65;7.13;;;8.50;99.90;;;;;;5004859;28;25109;-71
2023/02/12 07:53:46;;;;;;;8.98;6.03;;;8.50;99.90;;;;;;5001792;28;25111;-71
2023/02/12 07:56:20;;;;;;;9.95;6.40;;;8.50;99.90;;;;;;5002183;28;25065;-72
2023/02/12 07:58:47;;;;;;;11.85;6.30;;;8.60;99.90;;;;;;4994486;28;25164;-71
2023/02/12 08:01:19;;;;;;;12.15;6.97;;;8.60;99.90;;;;;;5000904;28;25097;-71
2023/02/12 08:03:45;;;;;;;13.30;7.97;;;8.50;99.90;;;;;;4996349;28;25092;-71
2023/02/12 08:06:19;;;;;;;11.88;6.40;;;8.50;99.90;;;;;;4975957;28;25076;-72
2023/02/12 08:08:46;;;;;;;11.60;7.57;;;8.60;99.90;;;;;;4998045;28;25058;-71
2023/02/12 08:11:13;;;;;;;10.65;6.40;;;8.60;99.90;;;;;;5003687;28;25104;-71
2023/02/12 08:13:39;;;;;;;11.18;7.03;;;8.60;99.90;;;;;;5001282;28;25172;-71
2023/02/12 08:16:11;;;;;;;13.88;7.28;;;8.70;99.90;;;;;;5001604;28;25085;-71
2023/02/12 08:18:37;;;;;;;13.15;7.18;;;8.60;99.90;;;;;;4996297;28;25062;-71
2023/02/12 08:21:05;;;;;;;10.25;6.90;;;8.60;99.90;;;;;;5000762;28;25053;-71
2023/02/12 08:23:32;;;;;;;10.98;6.43;;;8.60;99.90;;;;;;5002244;28;25116;-72
2023/02/12 08:26:25;;;;;;;11.48;6.90;;;8.70;99.90;;;;;;4994228;28;25079;-73
2023/02/12 08:28:54;;;;;;;12.55;7.90;;;8.70;99.90;;;;;;4976934;28;25081;-72
2023/02/12 08:31:22;;;;;;;10.77;6.97;;;8.60;99.90;;;;;;4996726;28;25080;-71
2023/02/12 08:33:49;;;;;;;10.02;5.95;;;8.50;99.90;;;;;;4997866;28;25148;-73
2023/02/12 08:36:18;;;;;;;11.55;7.20;;;8.60;99.90;;;;;;5000578;28;25072;-73
2023/02/12 08:38:45;;;;;;;11.73;7.15;;;8.50;99.90;;;;;;5003090;28;25052;-71
2023/02/12 08:41:13;;;;;;;10.43;6.55;;;8.50;99.90;;;;;;5002493;28;25157;-71
2023/02/12 08:43:40;;;;;;;13.63;6.38;;;8.60;99.90;;;;;;4998122;28;25051;-72
2023/02/12 08:46:12;;;;;;;12.68;6.55;;;8.60;99.90;;;;;;4995615;28;25057;-70
2023/02/12 08:48:38;;;;;;;11.13;6.75;;;8.60;99.90;;;;;;5001503;28;25062;-72
2023/02/12 08:51:25;;;;;;;9.98;6.20;;;8.60;99.90;;;;;;4992892;28;25077;-72
2023/02/12 08:53:53;;;;;;;10.95;6.63;;;8.70;99.90;;;;;;4998958;28;25089;-71
2023/02/12 08:56:20;;;;;;;11.13;6.68;;;8.80;99.90;;;;;;4998467;28;25067;-73
2023/02/12 08:58:46;;;;;;;12.00;6.93;;;8.80;99.90;;;;;;4996209;28;25091;-71
2023/02/12 09:01:18;;;;;;;13.80;7.45;;;8.80;99.90;;;;;;4995371;28;25112;-71
2023/02/12 09:03:44;;;;;;;11.90;6.53;;;8.90;99.90;;;;;;4996103;28;25162;-71
2023/02/12 09:06:10;;;;;;;10.48;6.30;;;9.00;99.90;;;;;;4999056;28;25141;-71
2023/02/12 09:08:37;;;;;;;17.98;6.97;;;9.10;99.90;;;;;;4995899;28;25066;-71
2023/02/12 09:11:07;;;;;;;11.02;6.90;;;9.10;99.90;;;;;;4998897;28;25068;-72
2023/02/12 09:13:33;;;;;;;14.73;7.18;;;9.10;99.90;;;;;;4995554;28;25051;-70
2023/02/12 09:16:01;;;;;;;14.13;7.55;;;9.20;99.90;;;;;;5003935;28;25064;-72
2023/02/12 09:18:27;;;;;;;9.73;6.68;;;9.20;99.90;;;;;;4993982;28;25168;-72
2023/02/12 09:20:54;;;;;;;12.38;7.43;;;9.10;99.90;;;;;;4999707;28;25056;-72
2023/02/12 09:23:19;;;;;;;10.18;6.22;;;9.20;99.90;;;;;;5006364;28;25157;-71
2023/02/12 09:25:46;;;;;;;10.38;6.05;;;9.30;99.90;;;;;;5008705;28;25054;-71
2023/02/12 09:28:13;;;;;;;11.07;7.05;;;9.20;99.90;;;;;;5006652;28;25072;-72
2023/02/12 09:30:39;;;;;;;14.18;6.95;;;9.30;99.90;;;;;;5005285;28;25066;-72
2023/02/12 09:33:06;;;;;;;12.98;6.97;;;9.10;99.90;;;;;;4999339;28;25158;-73
2023/02/12 09:35:36;;;;;;;9.43;6.13;;;9.10;99.90;;;;;;5002822;28;25072;-71
2023/02/12 09:38:02;;;;;;;13.15;7.32;;;9.00;99.90;;;;;;4998302;28;25053;-71
2023/02/12 09:40:46;;;;;;;9.05;6.55;;;9.10;99.90;;;;;;4999600;28;25057;-72
2023/02/12 09:43:11;;;;;;;11.80;6.70;;;9.00;99.90;;;;;;4996384;28;25062;-72
2023/02/12 09:45:44;;;;;;;19.98;6.95;;;8.90;99.90;;;;;;4995369;28;25115;-72
2023/02/12 09:48:28;;;;;;;10.88;6.97;;;9.10;99.90;;;;;;4974592;28;25139;-73
2023/02/12 09:50:59;;;;;;;12.25;7.03;;;9.10;99.90;;;;;;4974871;28;25069;-72
2023/02/12 09:53:29;;;;;;;12.55;6.93;;;9.10;99.90;;;;;;4997677;28;25128;-73
2023/02/12 09:55:55;;;;;;;11.48;6.85;;;8.90;99.90;;;;;;4998424;28;25064;-71
2023/02/12 09:58:49;;;;;;;15.35;6.82;;;8.90;99.90;;;;;;4998855;28;25069;-73
2023/02/12 10:01:17;;;;;;;13.95;7.30;;;9.10;99.90;;;;;;4989277;28;25070;-72
2023/02/12 10:03:45;;;;;;;15.13;7.13;;;9.10;99.90;;;;;;5001173;28;25074;-72
2023/02/12 10:06:16;;;;;;;11.88;7.22;;;9.10;99.90;;;;;;5000875;28;25082;-71
2023/02/12 10:09:08;;;;;;;11.95;6.95;;;9.10;99.90;;;;;;5000238;28;25139;-72
2023/02/12 10:11:36;;;;;;;13.13;7.63;;;9.20;99.90;;;;;;4997370;28;25068;-71
2023/02/12 10:14:33;;;;;;;15.93;7.38;;;9.20;99.90;;;;;;4994679;28;25080;-71
2023/02/12 10:17:36;;;;;;;11.00;6.82;;;9.30;99.90;;;;;;4990901;28;25074;-71
2023/02/12 10:20:26;;;;;;;;;;;9.40;99.90;;;;;;4991271;28;25079;-72
2023/02/12 10:22:57;;;;;;;16.60;7.78;;;9.40;99.90;;;;;;4996058;28;25162;-73
2023/02/12 10:25:35;;;;;;;12.52;7.20;;;9.40;99.90;;;;;;4994002;28;25135;-72
2023/02/12 10:28:17;;;;;;;13.43;6.85;;;9.40;99.90;;;;;;4992820;28;25070;-72
2023/02/12 10:30:50;;;;;;;16.42;7.45;;;9.40;99.90;;;;;;4991949;28;25056;-72
2023/02/12 10:33:26;;;;;;;12.63;6.97;;;9.40;99.90;;;;;;4996626;28;25070;-73
2023/02/12 10:36:31;;;;;;;12.55;7.47;;;9.40;99.90;;;;;;4992260;28;25145;-72
2023/02/12 10:39:20;;;;;;;11.07;7.10;;;9.40;99.90;;;;;;4997527;28;25071;-73
2023/02/12 10:42:00;;;;;;;11.75;7.15;;;9.30;99.90;;;;;;4977058;28;25147;-72
2023/02/12 10:44:26;;;;;;;12.38;6.45;;;9.30;99.90;;;;;;4996499;28;25087;-72
2023/02/12 10:46:52;;;;;;;14.98;7.45;;;9.30;99.90;;;;;;4980461;28;25070;-71
2023/02/12 10:49:19;;;;;;;11.02;6.25;;;9.30;99.90;;;;;;4996203;28;25173;-72
2023/02/12 10:52:17;;;;;;;13.57;7.35;;;9.40;99.90;;;;;;4994310;28;25158;-72
2023/02/12 10:54:44;;;;;;;16.05;6.97;;;9.40;99.90;;;;;;4994997;28;25080;-72
2023/02/12 10:57:18;;;;;;;13.07;6.15;;;9.30;99.90;;;;;;4977794;28;25061;-72
2023/02/12 10:59:45;;;;;;;13.52;7.60;;;9.30;99.90;;;;;;5000441;28;25161;-75
2023/02/12 11:02:57;;;;;;;12.35;7.10;;;9.40;99.90;;;;;;4998266;28;25131;-72
2023/02/12 11:05:24;;;;;;;13.90;7.18;;;9.40;99.90;;;;;;4990247;28;25109;-73
2023/02/12 11:07:51;;;;;;;12.55;6.75;;;9.50;99.90;;;;;;4997463;28;25063;-71
2023/02/12 11:10:30;;;;;;;12.48;7.63;;;9.50;99.90;;;;;;5001278;28;25123;-73
2023/02/12 11:12:58;;;;;;;16.88;7.70;;;9.60;99.90;;;;;;5000885;28;25078;-72
2023/02/12 11:15:25;;;;;;;11.70;6.75;;;9.70;99.90;;;;;;5002755;28;25152;-72
2023/02/12 11:18:00;;;;;;;13.60;7.20;;;9.60;99.90;;;;;;5002233;28;25078;-73
2023/02/12 11:20:37;;;;;;;16.17;7.45;;;9.70;99.90;;;;;;5004262;28;25172;-72
2023/02/12 11:23:05;;;;;;;11.50;7.53;;;9.80;99.90;;;;;;5002462;28;25078;-73
2023/02/12 11:25:34;;;;;;;13.25;7.72;;;9.90;99.90;;;;;;4999447;28;25073;-73
2023/02/12 11:28:18;;;;;;;11.57;7.10;;;9.90;99.90;;;;;;5005560;28;25145;-70
2023/02/12 11:31:21;;;;;;;10.48;6.90;;;9.90;99.90;;;;;;4990693;28;25047;-72
2023/02/12 11:34:04;;;;;;;13.48;7.65;;;9.80;99.90;;;;;;4987563;28;25095;-72
2023/02/12 11:36:34;;;;;;;14.70;7.57;;;9.70;99.90;;;;;;4986918;28;25072;-72
2023/02/12 11:39:00;;;;;;;12.70;6.82;;;9.40;99.90;;;;;;4980705;28;25060;-72
2023/02/12 11:41:33;;;;;;;11.00;7.13;;;9.40;99.90;;;;;;5006968;28;25146;-72
2023/02/12 11:44:00;;;;;;;10.18;6.47;;;9.40;99.90;;;;;;4990799;28;25075;-72
2023/02/12 11:46:27;;;;;;;12.10;7.65;;;9.40;99.90;;;;;;5007142;28;25127;-72
2023/02/12 11:48:55;;;;;;;12.27;7.03;;;9.60;99.90;;;;;;4988790;28;25120;-71
2023/02/12 11:51:25;;;;;;;12.52;7.85;;;9.60;99.90;;;;;;4990053;28;25085;-71
2023/02/12 11:53:57;;;;;;;12.85;7.57;;;9.40;99.90;;;;;;5003017;28;25047;-72
2023/02/12 11:56:23;;;;;;;12.05;7.28;;;9.40;99.90;;;;;;5010455;28;25124;-72
2023/02/12 11:58:50;;;;;;;13.43;7.60;;;9.40;99.90;;;;;;5007458;28;25112;-72
2023/02/12 12:01:27;;;;;;;17.73;8.05;;;9.40;99.90;;;;;;4995521;28;25067;-72
2023/02/12 12:04:13;;;;;;;16.30;7.30;;;9.50;99.90;;;;;;4988097;28;25090;-70
2023/02/12 12:06:40;;;;;;;14.50;7.95;;;9.50;99.90;;;;;;5005364;28;25089;-71
2023/02/12 12:09:25;;;;;;;11.30;7.00;;;9.40;99.90;;;;;;4993536;28;25141;-71
2023/02/12 12:12:12;;;;;;;15.45;8.45;;;9.50;99.90;;;;;;4996023;28;25077;-72
2023/02/12 12:21:02;;;;;;;12.32;7.40;;;9.40;99.90;;;;;;4999434;28;25087;-72
2023/02/12 12:23:52;;;;;;;13.93;7.68;;;9.40;99.90;;;;;;5006331;28;25098;-72
2023/02/12 12:26:23;;;;;;;15.43;10.13;;;9.40;99.90;;;;;;4984312;28;25061;-71
2023/02/12 12:29:00;;;;;;;15.27;7.30;;;9.50;99.90;;;;;;4998518;28;25081;-71
2023/02/12 12:31:48;;;;;;;13.68;7.10;;;9.40;99.90;;;;;;5006039;28;25109;-72
2023/02/12 12:34:22;;;;;;;11.70;7.60;;;9.40;99.90;;;;;;4995744;28;25054;-72
2023/02/12 12:37:02;;;;;;;16.02;8.30;;;9.50;99.90;;;;;;5003391;28;25099;-71
2023/02/12 12:39:37;;;;;;;16.38;8.52;;;9.60;99.90;;;;;;4992550;28;25101;-72
2023/02/12 12:42:43;;;;;;;17.50;8.88;;;9.60;99.90;;;;;;4999593;28;25138;-71
2023/02/12 12:45:39;;;;;;;15.25;8.38;;;9.70;99.90;;;;;;4998706;28;25073;-72
2023/02/12 12:48:40;;;;;;;14.77;8.23;;;9.50;99.90;;;;;;4998520;28;25109;-72
2023/02/12 12:51:17;;;;;;;12.85;7.90;;;9.60;99.90;;;;;;5001632;28;25159;-72
2023/02/12 12:53:58;;;;;;;19.25;9.57;;;9.70;99.90;;;;;;4997703;28;25064;-71
2023/02/12 12:56:38;;;;;;;20.30;9.85;;;9.50;99.90;;;;;;4984842;28;25056;-72
2023/02/12 12:59:22;;;;;;;16.40;9.50;;;9.50;99.90;;;;;;4996500;28;25063;-75
2023/02/12 13:01:53;;;;;;;15.60;9.38;;;9.60;99.90;;;;;;4999289;28;25076;-72
2023/02/12 13:04:31;;;;;;;20.15;11.15;;;9.70;99.90;;;;;;5002640;28;25164;-72
2023/02/12 13:07:40;;;;;;;20.23;10.93;;;9.80;99.90;;;;;;5003604;28;25062;-72
2023/02/12 13:10:13;;;;;;;19.58;11.05;;;9.70;99.90;;;;;;4976832;28;25062;-72
2023/02/12 13:13:07;;;;;;;23.60;12.48;;;9.60;99.90;;;;;;4990948;28;25170;-71
2023/02/12 13:15:36;;;;;;;21.10;11.88;;;9.70;99.90;;;;;;4972275;28;25069;-72
2023/02/12 13:18:29;;;;;;;21.00;11.75;;;9.40;99.90;;;;;;5007456;28;25076;-72
2023/02/12 13:21:16;;;;;;;25.33;11.77;;;9.50;99.90;;;;;;5006991;28;25080;-72
2023/02/12 13:24:04;;;;;;;23.83;12.90;;;9.60;99.90;;;;;;4996583;28;25075;-71